Time;durP1;ratioP1;P1;durP2;ratioP2;P2;SDS_P1;SDS_P2;PMS_P1;PMS_P2;Temp;Humidity;BMP_temperature;BMP_pressure;BME280_temperature;BME280_humidity;BME280_pressure;Samples;Min_cycle;Max_cycle;Signal;HPM_P1;HPM_P2
2023/04/18 00:00:30;;;;;;;6.13;3.75;;;20.00;54.00;;;;;;5093037;28;20043;-71
2023/04/18 00:02:55;;;;;;;5.55;3.85;;;20.00;53.90;;;;;;5092975;28;20044;-72
2023/04/18 00:05:21;;;;;;;6.18;3.92;;;20.00;54.10;;;;;;5093178;28;20044;-72
2023/04/18 00:07:46;;;;;;;5.85;3.80;;;20.00;53.90;;;;;;5092430;28;20036;-72
2023/04/18 00:10:12;;;;;;;5.75;3.33;;;20.00;53.90;;;;;;5095149;28;20051;-72
2023/04/18 00:12:37;;;;;;;5.88;3.70;;;20.00;53.90;;;;;;5103545;28;20086;-71
2023/04/18 00:15:04;;;;;;;5.03;3.83;;;20.00;53.80;;;;;;5108994;28;20048;-71
2023/04/18 00:17:31;;;;;;;8.20;4.03;;;20.00;53.80;;;;;;5104836;28;20081;-72
2023/04/18 00:19:57;;;;;;;4.60;3.40;;;20.00;53.80;;;;;;5092898;28;20051;-72
2023/04/18 00:22:23;;;;;;;5.20;3.70;;;20.00;53.80;;;;;;5097644;28;20130;-72
2023/04/18 00:24:49;;;;;;;7.43;3.75;;;20.00;53.70;;;;;;5113518;28;20039;-71
2023/04/18 00:27:16;;;;;;;5.57;3.50;;;19.90;53.60;;;;;;5112778;28;20443;-72
2023/04/18 00:29:42;;;;;;;4.97;3.83;;;20.00;53.60;;;;;;5112266;28;20387;-72
2023/04/18 00:32:07;;;;;;;5.65;3.67;;;19.90;53.50;;;;;;5111513;28;20055;-72
2023/04/18 00:34:33;;;;;;;5.75;4.10;;;19.90;53.50;;;;;;5111832;28;20078;-72
2023/04/18 00:36:59;;;;;;;7.13;3.55;;;19.90;53.50;;;;;;5111852;28;20447;-72
2023/04/18 00:39:24;;;;;;;5.68;3.80;;;19.90;53.40;;;;;;5112142;28;20066;-72
2023/04/18 00:41:50;;;;;;;4.90;3.75;;;19.90;53.40;;;;;;5111726;28;20039;-72
2023/04/18 00:44:16;;;;;;;4.93;3.63;;;19.90;53.40;;;;;;5112230;28;20391;-71
2023/04/18 00:46:42;;;;;;;5.18;3.40;;;19.90;53.40;;;;;;5112999;28;20042;-72
2023/04/18 00:49:07;;;;;;;6.07;3.65;;;19.90;53.40;;;;;;5112007;28;20403;-72
2023/04/18 00:51:33;;;;;;;5.03;3.42;;;19.90;53.40;;;;;;5111942;28;20044;-72
2023/04/18 00:53:59;;;;;;;4.68;3.28;;;19.80;53.30;;;;;;5112294;28;20383;-73
2023/04/18 00:56:25;;;;;;;5.75;4.10;;;19.80;53.30;;;;;;5112290;28;20039;-72
2023/04/18 00:58:51;;;;;;;5.85;3.53;;;19.80;53.20;;;;;;5112480;28;20040;-72
2023/04/18 01:01:16;;;;;;;6.45;4.20;;;19.80;53.20;;;;;;5110903;28;20043;-73
2023/04/18 01:03:42;;;;;;;5.95;3.85;;;19.80;53.20;;;;;;5096165;28;20096;-72
2023/04/18 01:06:08;;;;;;;5.78;3.50;;;19.80;53.10;;;;;;5090842;28;20059;-72
2023/04/18 01:08:34;;;;;;;4.93;3.40;;;19.80;53.10;;;;;;5088557;28;20398;-72
2023/04/18 01:10:59;;;;;;;5.60;3.70;;;19.80;53.10;;;;;;5093307;28;20069;-72
2023/04/18 01:13:25;;;;;;;5.32;3.58;;;19.80;53.00;;;;;;5111070;28;20039;-72
2023/04/18 01:15:50;;;;;;;5.95;4.07;;;19.80;53.00;;;;;;5112543;28;20040;-73
2023/04/18 01:18:16;;;;;;;6.22;3.90;;;19.80;53.00;;;;;;5110309;28;20081;-72
2023/04/18 01:20:46;;;;;;;5.28;3.60;;;19.80;53.70;;;;;;5112357;28;20094;-72
2023/04/18 01:23:12;;;;;;;5.15;3.47;;;19.80;53.00;;;;;;5111720;28;20044;-72
2023/04/18 01:25:38;;;;;;;6.63;3.95;;;19.80;53.00;;;;;;5111884;28;20054;-72
2023/04/18 01:28:04;;;;;;;5.25;3.53;;;19.70;52.90;;;;;;5103058;28;20036;-72
2023/04/18 01:30:30;;;;;;;7.30;4.10;;;19.70;52.90;;;;;;5092232;28;20517;-72
2023/04/18 01:32:56;;;;;;;6.30;4.00;;;19.70;52.90;;;;;;5090887;28;20078;-72
2023/04/18 01:35:21;;;;;;;6.38;3.63;;;19.70;52.90;;;;;;5090628;28;20036;-72
2023/04/18 01:37:47;;;;;;;5.40;3.65;;;19.70;52.90;;;;;;5092093;28;20055;-73
2023/04/18 01:40:13;;;;;;;5.32;3.63;;;19.70;52.80;;;;;;5094979;28;20039;-73
2023/04/18 01:42:38;;;;;;;5.90;3.42;;;19.70;52.80;;;;;;5106385;28;20051;-72
2023/04/18 01:45:05;;;;;;;5.80;3.60;;;19.70;52.80;;;;;;5090602;28;20121;-72
2023/04/18 01:47:30;;;;;;;5.25;3.83;;;19.70;52.80;;;;;;5090155;28;20040;-73
2023/04/18 01:49:56;;;;;;;5.55;3.80;;;19.70;52.80;;;;;;5091468;28;20046;-73
2023/04/18 01:52:21;;;;;;;4.53;3.55;;;19.70;52.80;;;;;;5097623;28;20096;-73
2023/04/18 01:54:47;;;;;;;5.30;3.90;;;19.70;52.70;;;;;;5092180;28;20036;-73
2023/04/18 01:57:13;;;;;;;5.75;3.63;;;19.70;52.70;;;;;;5091745;28;20138;-73
2023/04/18 01:59:38;;;;;;;5.10;3.72;;;19.60;52.70;;;;;;5091442;28;20047;-73
2023/04/18 02:02:04;;;;;;;5.30;3.85;;;19.60;52.70;;;;;;5074215;28;20059;-72
2023/04/18 02:04:30;;;;;;;5.15;3.47;;;19.60;52.60;;;;;;5095333;28;20485;-73
2023/04/18 02:06:55;;;;;;;5.85;4.00;;;19.60;52.60;;;;;;5094202;28;20040;-72
2023/04/18 02:09:21;;;;;;;7.40;3.97;;;19.60;52.60;;;;;;5111883;28;20039;-72
2023/04/18 02:11:46;;;;;;;5.22;3.42;;;19.60;52.60;;;;;;5114169;28;20043;-72
2023/04/18 02:14:12;;;;;;;5.07;3.60;;;19.60;52.60;;;;;;5114458;28;20050;-72
2023/04/18 02:16:37;;;;;;;5.63;3.70;;;19.60;52.60;;;;;;5115652;28;20094;-72
2023/04/18 02:19:03;;;;;;;4.95;3.30;;;19.60;52.50;;;;;;5114874;28;20483;-72
2023/04/18 02:21:29;;;;;;;5.53;3.78;;;19.60;52.50;;;;;;5113319;28;20051;-72
2023/04/18 02:23:55;;;;;;;4.93;3.90;;;19.60;52.50;;;;;;5115208;28;20043;-73
2023/04/18 02:26:21;;;;;;;6.25;3.67;;;19.60;52.50;;;;;;5115540;28;20039;-72
2023/04/18 02:28:46;;;;;;;3.97;3.35;;;19.60;52.40;;;;;;5114481;28;20123;-72
2023/04/18 02:31:13;;;;;;;5.95;3.80;;;19.50;52.40;;;;;;5113594;28;20181;-72
2023/04/18 02:33:43;;;;;;;5.80;3.53;;;19.50;52.40;;;;;;5115570;28;20039;-72
2023/04/18 02:36:09;;;;;;;5.03;3.65;;;19.50;52.40;;;;;;5114422;28;20039;-72
2023/04/18 02:38:34;;;;;;;5.18;3.67;;;19.50;52.40;;;;;;5115256;28;20039;-72
2023/04/18 02:41:00;;;;;;;5.20;3.63;;;19.50;52.30;;;;;;5115144;28;20035;-72
2023/04/18 02:43:25;;;;;;;6.03;3.60;;;19.50;52.40;;;;;;5114176;28;20500;-72
2023/04/18 02:45:51;;;;;;;5.72;3.92;;;19.50;52.30;;;;;;5115459;28;20605;-72
2023/04/18 02:48:16;;;;;;;5.43;3.85;;;19.50;52.30;;;;;;5114624;28;20442;-73
2023/04/18 02:50:42;;;;;;;4.95;3.53;;;19.50;52.30;;;;;;5114309;28;20048;-72
2023/04/18 02:53:07;;;;;;;5.75;3.90;;;19.50;52.30;;;;;;5114639;28;20040;-73
2023/04/18 02:55:33;;;;;;;4.70;3.45;;;19.50;52.20;;;;;;5114504;28;20035;-72
2023/04/18 02:57:59;;;;;;;5.13;3.60;;;19.50;52.20;;;;;;5112831;28;20031;-72
2023/04/18 03:00:24;;;;;;;5.40;3.95;;;19.50;52.10;;;;;;5115156;28;20059;-72
2023/04/18 03:02:51;;;;;;;5.63;4.00;;;19.50;52.10;;;;;;5113777;28;20100;-72
2023/04/18 03:05:18;;;;;;;5.35;3.58;;;19.50;52.10;;;;;;5114700;28;20047;-72
2023/04/18 03:07:44;;;;;;;5.03;3.58;;;19.50;52.00;;;;;;5114094;28;20467;-72
2023/04/18 03:10:09;;;;;;;5.85;4.10;;;19.50;52.00;;;;;;5113780;28;20040;-72
2023/04/18 03:12:35;;;;;;;5.20;3.40;;;19.50;52.00;;;;;;5114649;28;20505;-72
2023/04/18 03:15:00;;;;;;;5.45;3.97;;;19.50;51.90;;;;;;5113221;28;20039;-72
2023/04/18 03:17:26;;;;;;;5.70;3.42;;;19.50;51.90;;;;;;5113816;28;20040;-71
2023/04/18 03:19:52;;;;;;;5.88;3.50;;;19.50;51.90;;;;;;5074674;28;20404;-72
2023/04/18 03:22:18;;;;;;;4.82;3.22;;;19.50;51.90;;;;;;5073452;28;20049;-72
2023/04/18 03:24:43;;;;;;;5.93;4.00;;;19.50;51.80;;;;;;5105376;28;20036;-72
2023/04/18 03:27:09;;;;;;;6.13;3.33;;;19.50;51.80;;;;;;5093366;28;20100;-72
2023/04/18 03:29:34;;;;;;;5.88;3.42;;;19.50;51.70;;;;;;5094159;28;20040;-71
2023/04/18 03:32:00;;;;;;;6.72;3.85;;;19.50;51.70;;;;;;5092620;28;20483;-72
2023/04/18 03:34:25;;;;;;;5.05;3.55;;;19.50;51.70;;;;;;5093563;28;20044;-72
2023/04/18 03:36:51;;;;;;;5.45;3.40;;;19.60;51.70;;;;;;5093911;28;20127;-72
2023/04/18 03:39:17;;;;;;;4.40;3.33;;;19.60;51.70;;;;;;5103707;28;20047;-72
2023/04/18 03:41:42;;;;;;;4.63;3.10;;;19.60;51.80;;;;;;5113928;28;20046;-72
2023/04/18 03:44:08;;;;;;;5.07;3.28;;;19.60;51.80;;;;;;5113833;28;20088;-72
2023/04/18 03:46:33;;;;;;;4.78;3.03;;;19.60;51.80;;;;;;5113116;28;20123;-72
2023/04/18 03:48:59;;;;;;;5.15;3.22;;;19.60;51.80;;;;;;5113469;28;20397;-73
2023/04/18 03:51:25;;;;;;;5.88;3.72;;;19.70;51.80;;;;;;5113992;27;20482;-72
2023/04/18 03:53:50;;;;;;;4.43;3.10;;;19.70;51.90;;;;;;5111827;28;20044;-72
2023/04/18 03:56:16;;;;;;;4.97;3.40;;;19.70;51.80;;;;;;5113612;28;20402;-72
2023/04/18 03:58:41;;;;;;;5.65;3.70;;;19.80;51.80;;;;;;5112304;28;20058;-72
2023/04/18 04:01:07;;;;;;;4.78;3.15;;;19.70;51.70;;;;;;5108658;28;20048;-73
2023/04/18 04:03:33;;;;;;;5.75;3.45;;;19.70;51.80;;;;;;5092596;28;20108;-72
2023/04/18 04:05:58;;;;;;;5.55;3.42;;;19.80;51.80;;;;;;5091271;28;20399;-73
2023/04/18 04:08:24;;;;;;;6.53;3.67;;;19.80;51.80;;;;;;5091632;28;20348;-72
2023/04/18 04:10:49;;;;;;;4.20;3.08;;;19.80;51.70;;;;;;5093210;28;20051;-72
2023/04/18 04:13:15;;;;;;;5.05;3.42;;;19.80;51.70;;;;;;5110223;28;20028;-72
2023/04/18 04:15:40;;;;;;;5.70;3.50;;;19.80;51.70;;;;;;5091678;28;20513;-72
2023/04/18 04:18:06;;;;;;;4.50;2.97;;;19.80;51.60;;;;;;5092851;28;20059;-72
2023/04/18 04:20:32;;;;;;;4.40;2.97;;;19.80;51.60;;;;;;5071829;28;20043;-72
2023/04/18 04:22:58;;;;;;;3.88;2.85;;;19.90;51.60;;;;;;5072246;28;20060;-72
2023/04/18 04:25:27;;;;;;;5.72;3.13;;;19.90;51.50;;;;;;5091543;28;20419;-71
2023/04/18 04:27:53;;;;;;;5.38;2.90;;;19.90;51.50;;;;;;5092157;28;20036;-71
2023/04/18 04:30:19;;;;;;;4.60;2.90;;;19.90;51.50;;;;;;5092314;28;20055;-70
2023/04/18 04:32:46;;;;;;;3.97;2.92;;;19.90;51.50;;;;;;5092962;28;20068;-71
2023/04/18 04:35:12;;;;;;;4.03;2.97;;;19.90;51.50;;;;;;5091600;28;20056;-71
2023/04/18 04:37:39;;;;;;;4.78;3.13;;;20.00;51.50;;;;;;5091651;28;20123;-71
2023/04/18 04:40:08;;;;;;;6.07;3.30;;;19.90;51.40;;;;;;5092655;28;20051;-71
2023/04/18 04:42:34;;;;;;;4.28;2.85;;;20.00;51.50;;;;;;5092233;28;20101;-71
2023/04/18 04:45:01;;;;;;;4.45;2.85;;;20.00;52.10;;;;;;5092296;28;20086;-71
2023/04/18 04:47:27;;;;;;;4.65;2.78;;;20.00;51.40;;;;;;5092693;28;20040;-71
2023/04/18 04:49:52;;;;;;;5.80;2.90;;;20.00;51.40;;;;;;5103443;28;20114;-71
2023/04/18 04:52:18;;;;;;;6.45;3.58;;;20.00;51.30;;;;;;5112229;28;20047;-71
2023/04/18 04:54:44;;;;;;;4.60;2.92;;;20.00;51.20;;;;;;5111301;28;20066;-71
2023/04/18 04:57:10;;;;;;;5.63;3.10;;;20.00;51.90;;;;;;5111736;28;20043;-71
2023/04/18 04:59:35;;;;;;;4.57;3.00;;;20.00;51.20;;;;;;5112698;28;20065;-71
2023/04/18 05:02:01;;;;;;;4.97;3.17;;;20.00;51.20;;;;;;5112603;28;20043;-71
2023/04/18 05:04:26;;;;;;;4.13;2.63;;;20.00;51.10;;;;;;5110211;28;20042;-71
2023/04/18 05:06:52;;;;;;;4.97;3.00;;;20.10;51.20;;;;;;5112881;28;20039;-71
2023/04/18 05:09:18;;;;;;;4.20;2.78;;;20.10;51.20;;;;;;5111559;28;20371;-71
2023/04/18 05:11:44;;;;;;;4.50;2.95;;;20.10;51.20;;;;;;5112908;28;20580;-71
2023/04/18 05:14:11;;;;;;;5.30;2.90;;;20.10;51.20;;;;;;5090792;28;20439;-71
2023/04/18 05:16:36;;;;;;;5.28;3.13;;;20.10;51.10;;;;;;5103820;28;20157;-71
2023/04/18 05:19:02;;;;;;;4.55;2.92;;;20.10;51.10;;;;;;5107475;28;20123;-71
2023/04/18 05:21:28;;;;;;;5.05;3.20;;;20.10;51.10;;;;;;5092208;28;20044;-70
2023/04/18 05:23:54;;;;;;;4.95;3.05;;;20.10;51.10;;;;;;5091586;28;20067;-71
2023/04/18 05:26:20;;;;;;;5.10;2.60;;;20.10;51.10;;;;;;5092260;28;20505;-71
2023/04/18 05:28:46;;;;;;;4.30;2.92;;;20.10;51.10;;;;;;5074264;28;20518;-70
2023/04/18 05:31:12;;;;;;;5.47;3.00;;;20.10;51.00;;;;;;5089593;28;20127;-71
2023/04/18 05:33:37;;;;;;;5.80;3.05;;;20.10;50.90;;;;;;5090789;28;20430;-71
2023/04/18 05:36:03;;;;;;;4.20;3.13;;;20.10;51.00;;;;;;5091046;28;20036;-70
2023/04/18 05:38:28;;;;;;;4.82;2.70;;;20.10;51.00;;;;;;5076927;28;20047;-70
2023/04/18 05:40:54;;;;;;;3.92;2.70;;;20.10;50.90;;;;;;5096170;28;20131;-70
2023/04/18 05:43:20;;;;;;;3.95;2.67;;;20.20;50.90;;;;;;5096153;28;20043;-71
2023/04/18 05:45:46;;;;;;;4.22;3.13;;;20.20;51.00;;;;;;5095387;28;20089;-71
2023/04/18 05:48:12;;;;;;;4.82;2.83;;;20.20;50.90;;;;;;5077385;28;20036;-71
2023/04/18 05:50:37;;;;;;;4.63;2.78;;;20.20;50.90;;;;;;5110417;28;20071;-71
2023/04/18 05:53:03;;;;;;;4.55;3.10;;;20.20;50.90;;;;;;5115339;28;20075;-71
2023/04/18 05:55:28;;;;;;;3.28;2.42;;;20.20;50.90;;;;;;5114812;28;20051;-72
2023/04/18 05:57:54;;;;;;;4.05;2.70;;;20.20;50.90;;;;;;5115979;28;20099;-72
2023/04/18 06:00:20;;;;;;;5.20;2.67;;;20.20;51.60;;;;;;5113799;28;20067;-72
2023/04/18 06:02:45;;;;;;;5.05;2.45;;;20.20;50.90;;;;;;5115595;28;20097;-71
2023/04/18 06:05:11;;;;;;;4.78;2.55;;;20.20;50.80;;;;;;5115385;28;20160;-71
2023/04/18 06:07:37;;;;;;;4.75;2.80;;;20.20;50.80;;;;;;5113850;28;20486;-71
2023/04/18 06:10:04;;;;;;;3.40;2.20;;;20.20;50.80;;;;;;5115239;28;20066;-71
2023/04/18 06:12:30;;;;;;;4.57;2.67;;;20.20;50.80;;;;;;5104689;28;20501;-72
2023/04/18 06:14:55;;;;;;;4.18;2.67;;;20.20;50.80;;;;;;5099030;28;20028;-71
2023/04/18 06:17:21;;;;;;;3.92;2.40;;;20.20;50.80;;;;;;5093153;28;20408;-72
2023/04/18 06:19:46;;;;;;;5.50;2.92;;;20.20;50.80;;;;;;5093142;28;20036;-72
2023/04/18 06:22:12;;;;;;;4.40;2.53;;;20.20;50.80;;;;;;5093300;28;20060;-72
2023/04/18 06:24:37;;;;;;;4.43;2.90;;;20.20;50.80;;;;;;5095458;28;20032;-71
2023/04/18 06:27:04;;;;;;;4.05;2.53;;;20.20;50.70;;;;;;5092925;28;20048;-72
2023/04/18 06:29:31;;;;;;;4.20;2.40;;;20.20;50.60;;;;;;5098032;28;20483;-72
2023/04/18 06:31:57;;;;;;;5.15;2.72;;;20.30;50.70;;;;;;5114868;28;20085;-72
2023/04/18 06:34:23;;;;;;;5.90;3.00;;;20.20;50.60;;;;;;5114534;28;20063;-72
2023/04/18 06:36:49;;;;;;;5.88;2.83;;;20.30;50.70;;;;;;5114124;28;20039;-71
2023/04/18 06:39:14;;;;;;;5.97;3.00;;;20.30;50.70;;;;;;5114885;28;20398;-71
2023/04/18 06:41:40;;;;;;;7.28;3.10;;;20.30;50.70;;;;;;5113898;28;20035;-72
2023/04/18 06:44:05;;;;;;;4.28;2.88;;;20.30;50.70;;;;;;5114438;28;20036;-71
2023/04/18 06:46:31;;;;;;;4.75;2.83;;;20.40;50.80;;;;;;5115238;28;20067;-71
2023/04/18 06:48:57;;;;;;;5.57;3.33;;;20.30;50.80;;;;;;5112856;28;20062;-71
2023/04/18 06:51:22;;;;;;;7.82;3.22;;;20.40;50.80;;;;;;5113632;28;20051;-73
2023/04/18 06:53:51;;;;;;;7.25;2.67;;;20.40;50.90;;;;;;5093377;28;20051;-73
2023/04/18 06:56:20;;;;;;;4.47;2.80;;;20.40;51.00;;;;;;5096670;28;20067;-72
2023/04/18 06:58:46;;;;;;;6.45;2.80;;;20.40;51.10;;;;;;5113974;28;20043;-70
2023/04/18 07:01:11;;;;;;;7.80;3.22;;;20.40;51.10;;;;;;5095124;28;20048;-69
2023/04/18 07:03:37;;;;;;;6.93;3.08;;;20.40;51.90;;;;;;5093747;28;20091;-71
2023/04/18 07:06:04;;;;;;;5.45;3.13;;;20.40;51.20;;;;;;5094117;28;20071;-70
2023/04/18 07:08:30;;;;;;;7.03;2.80;;;20.40;51.30;;;;;;5092732;28;20055;-71
2023/04/18 07:10:55;;;;;;;5.57;2.95;;;20.40;51.50;;;;;;5092700;28;20036;-69
2023/04/18 07:13:21;;;;;;;7.93;3.05;;;20.40;51.60;;;;;;5092905;28;20036;-70
2023/04/18 07:15:46;;;;;;;6.05;2.88;;;20.40;51.60;;;;;;5092712;28;20130;-70
2023/04/18 07:18:12;;;;;;;5.78;2.97;;;20.40;51.70;;;;;;5074664;28;20083;-70
2023/04/18 07:20:37;;;;;;;6.93;2.75;;;20.40;51.70;;;;;;5094009;28;20051;-70
2023/04/18 07:23:03;;;;;;;4.72;3.20;;;20.50;51.80;;;;;;5092149;28;20537;-73
2023/04/18 07:25:29;;;;;;;6.90;3.35;;;20.50;51.80;;;;;;5093405;28;20115;-75
2023/04/18 07:27:54;;;;;;;6.03;3.25;;;20.50;51.80;;;;;;5075076;28;20052;-75
2023/04/18 07:30:20;;;;;;;4.75;2.95;;;20.50;51.80;;;;;;5092337;28;20459;-75
2023/04/18 07:32:48;;;;;;;5.95;3.08;;;20.50;51.80;;;;;;5092331;28;20048;-73
2023/04/18 07:35:14;;;;;;;4.53;2.92;;;20.50;51.80;;;;;;5092010;28;20509;-71
2023/04/18 07:37:40;;;;;;;8.90;3.35;;;20.50;51.80;;;;;;5100950;28;20447;-73
2023/04/18 07:40:06;;;;;;;5.70;2.88;;;20.50;51.70;;;;;;5103665;28;20036;-74
2023/04/18 07:42:31;;;;;;;5.00;3.13;;;20.50;51.80;;;;;;5102629;28;20081;-74
2023/04/18 07:44:57;;;;;;;6.05;3.30;;;20.50;51.70;;;;;;5109093;28;20032;-74
2023/04/18 07:47:24;;;;;;;5.03;2.90;;;20.50;51.70;;;;;;5093511;28;20491;-74
2023/04/18 07:49:49;;;;;;;6.47;3.35;;;20.50;51.60;;;;;;5092318;28;20043;-74
2023/04/18 07:52:15;;;;;;;6.10;3.25;;;20.50;51.60;;;;;;5091055;28;20048;-74
2023/04/18 07:54:40;;;;;;;5.18;3.00;;;20.50;51.50;;;;;;5093864;28;20048;-74
2023/04/18 07:57:09;;;;;;;5.80;3.00;;;20.50;51.60;;;;;;5095207;28;20120;-73
2023/04/18 07:59:35;;;;;;;4.55;2.72;;;20.50;51.80;;;;;;5096677;28;20411;-74
2023/04/18 08:02:01;;;;;;;6.18;3.28;;;20.50;51.90;;;;;;5095219;28;20467;-74
2023/04/18 08:04:27;;;;;;;8.05;3.35;;;20.50;51.90;;;;;;5092337;28;20055;-75
2023/04/18 08:06:52;;;;;;;6.72;3.38;;;20.50;51.90;;;;;;5091310;28;20423;-75
2023/04/18 08:09:20;;;;;;;5.85;3.30;;;20.50;51.80;;;;;;5092064;28;20047;-75
2023/04/18 08:11:46;;;;;;;4.95;2.80;;;20.50;51.80;;;;;;5093270;28;20101;-76
2023/04/18 08:14:12;;;;;;;6.05;3.17;;;20.50;51.80;;;;;;5091076;28;20078;-76
2023/04/18 08:16:37;;;;;;;5.35;2.90;;;20.50;51.80;;;;;;5091937;28;20038;-76
2023/04/18 08:19:03;;;;;;;7.00;2.90;;;20.50;51.70;;;;;;5092820;28;20043;-76
2023/04/18 08:21:29;;;;;;;5.95;3.05;;;20.50;51.70;;;;;;5091202;28;20043;-75
2023/04/18 08:23:54;;;;;;;7.25;3.28;;;20.50;51.70;;;;;;5091099;28;20055;-74
2023/04/18 08:26:20;;;;;;;4.13;2.97;;;20.40;51.70;;;;;;5079399;28;20044;-75
2023/04/18 08:28:49;;;;;;;5.10;2.72;;;20.40;51.60;;;;;;5073173;28;20032;-76
2023/04/18 08:31:15;;;;;;;4.65;3.05;;;20.40;51.60;;;;;;5072512;28;20502;-75
2023/04/18 08:33:40;;;;;;;4.20;2.72;;;20.40;51.60;;;;;;5071613;28;20495;-75
2023/04/18 08:36:06;;;;;;;6.07;3.20;;;20.40;51.60;;;;;;5072263;28;20036;-75
2023/04/18 08:38:32;;;;;;;6.28;3.13;;;20.40;51.50;;;;;;5072873;28;20119;-76
2023/04/18 08:40:57;;;;;;;5.95;3.13;;;20.40;51.40;;;;;;5071762;28;20052;-76
2023/04/18 08:43:24;;;;;;;4.93;2.92;;;20.40;51.40;;;;;;5073046;28;20048;-72
2023/04/18 08:45:49;;;;;;;6.50;3.08;;;20.40;51.40;;;;;;5088246;28;20052;-76
2023/04/18 08:48:16;;;;;;;5.75;3.35;;;20.40;51.40;;;;;;5091100;28;20086;-75
2023/04/18 08:50:42;;;;;;;5.47;3.03;;;20.40;51.40;;;;;;5092657;28;20079;-77
2023/04/18 08:53:08;;;;;;;6.80;3.15;;;20.40;51.40;;;;;;5091835;28;20047;-77
2023/04/18 08:55:34;;;;;;;7.78;4.15;;;20.40;51.40;;;;;;5092212;28;20097;-76
2023/04/18 08:58:00;;;;;;;5.90;2.90;;;20.40;51.40;;;;;;5092082;28;20083;-76
2023/04/18 09:00:26;;;;;;;5.75;2.95;;;20.40;51.40;;;;;;5092947;28;20447;-76
2023/04/18 09:02:55;;;;;;;6.22;2.85;;;20.40;51.30;;;;;;5091659;28;20104;-76
2023/04/18 09:05:21;;;;;;;4.00;2.60;;;20.40;51.40;;;;;;5092839;28;20044;-76
2023/04/18 09:07:48;;;;;;;4.50;2.80;;;20.40;51.40;;;;;;5091326;28;20101;-76
2023/04/18 09:10:29;;;;;;;8.38;3.42;;;20.40;51.40;;;;;;5091515;28;20415;-76
2023/04/18 09:12:56;;;;;;;5.30;3.00;;;20.40;51.30;;;;;;5094972;28;20044;-76
2023/04/18 09:15:23;;;;;;;4.57;3.03;;;20.40;51.20;;;;;;5094964;28;20490;-76
2023/04/18 09:17:51;;;;;;;5.65;3.10;;;20.40;51.20;;;;;;5096604;28;20040;-75
2023/04/18 09:20:34;;;;;;;4.50;2.70;;;20.40;51.20;;;;;;5096696;28;20525;-76
2023/04/18 09:23:02;;;;;;;5.13;3.05;;;20.40;51.20;;;;;;5095274;28;20170;-76
2023/04/18 09:25:29;;;;;;;;;;;20.40;51.30;;;;;;5095839;28;20039;-76
2023/04/18 09:27:59;;;;;;;5.45;3.30;;;20.40;51.40;;;;;;5095187;28;19942;-76
2023/04/18 09:30:32;;;;;;;6.20;3.38;;;20.40;51.40;;;;;;5095888;28;20123;-76
2023/04/18 09:32:59;;;;;;;5.63;3.28;;;20.40;51.30;;;;;;5095841;28;20076;-76
2023/04/18 09:35:25;;;;;;;5.40;3.17;;;20.40;51.20;;;;;;5096354;28;20048;-76
2023/04/18 09:37:51;;;;;;;6.55;3.47;;;20.40;51.30;;;;;;5095786;28;20104;-76
2023/04/18 09:40:17;;;;;;;5.30;2.97;;;20.40;51.20;;;;;;5096073;28;20040;-76
2023/04/18 09:42:43;;;;;;;5.65;2.88;;;20.40;51.10;;;;;;5095980;28;20078;-76
2023/04/18 09:45:12;;;;;;;5.57;3.10;;;20.40;51.10;;;;;;5094003;28;20040;-75
2023/04/18 09:47:37;;;;;;;4.60;3.00;;;20.40;51.10;;;;;;5095026;28;20521;-76
2023/04/18 09:50:04;;;;;;;4.50;2.72;;;20.40;51.00;;;;;;5095936;28;20040;-76
2023/04/18 09:52:32;;;;;;;3.63;2.47;;;20.40;51.00;;;;;;5095363;28;20062;-75
2023/04/18 09:54:58;;;;;;;4.80;3.08;;;20.40;51.00;;;;;;5095666;28;20032;-76
2023/04/18 09:57:26;;;;;;;4.95;2.63;;;20.40;51.00;;;;;;5094753;28;20051;-75
2023/04/18 10:00:15;;;;;;;5.00;3.03;;;20.40;50.90;;;;;;5094172;28;20066;-76
2023/04/18 10:02:49;;;;;;;5.97;2.90;;;20.40;50.90;;;;;;5095718;28;20043;-76
2023/04/18 10:05:15;;;;;;;4.50;2.70;;;20.40;50.90;;;;;;5093555;28;20173;-75
2023/04/18 10:07:42;;;;;;;6.18;2.72;;;20.40;50.80;;;;;;5094815;28;20071;-75
2023/04/18 10:10:08;;;;;;;5.68;3.70;;;20.40;50.80;;;;;;5094122;28;20036;-76
2023/04/18 10:12:35;;;;;;;5.07;3.13;;;20.40;50.70;;;;;;5095646;28;20105;-75
2023/04/18 10:15:01;;;;;;;6.60;3.00;;;20.40;50.70;;;;;;5093890;28;20044;-76
2023/04/18 10:17:27;;;;;;;9.20;3.00;;;20.40;50.80;;;;;;5095676;28;20411;-76
2023/04/18 10:20:07;;;;;;;6.50;3.15;;;20.40;50.80;;;;;;5094245;28;20032;-76
2023/04/18 10:22:33;;;;;;;5.95;3.05;;;20.50;51.10;;;;;;5094883;28;20048;-76
2023/04/18 10:24:58;;;;;;;4.57;2.70;;;20.50;51.10;;;;;;5093899;28;20110;-76
2023/04/18 10:27:56;;;;;;;4.63;2.78;;;20.50;51.20;;;;;;5093508;28;20044;-76
2023/04/18 10:30:44;;;;;;;6.93;3.10;;;20.50;51.20;;;;;;5095382;28;20483;-76
2023/04/18 10:33:20;;;;;;;6.13;3.30;;;20.50;51.20;;;;;;5092010;28;20063;-71
2023/04/18 10:36:11;;;;;;;6.88;2.95;;;20.50;51.20;;;;;;5095812;28;20074;-70
2023/04/18 10:38:44;;;;;;;6.25;3.30;;;20.50;51.40;;;;;;5097299;28;20135;-71
2023/04/18 10:41:26;;;;;;;7.18;3.50;;;20.50;51.40;;;;;;5098362;28;20043;-73
2023/04/18 10:44:13;;;;;;;6.85;3.65;;;20.50;51.40;;;;;;5094734;28;20048;-72
2023/04/18 10:47:07;;;;;;;6.33;3.83;;;20.50;51.70;;;;;;5089622;28;20032;-73
2023/04/18 10:49:36;;;;;;;6.25;3.22;;;20.50;51.80;;;;;;5073748;28;20426;-75
2023/04/18 10:52:03;;;;;;;6.70;3.70;;;20.60;52.00;;;;;;5086633;28;20044;-73
2023/04/18 10:54:31;;;;;;;5.55;3.17;;;20.60;52.00;;;;;;5076441;28;20044;-72
2023/04/18 10:56:57;;;;;;;;;;;20.60;52.00;;;;;;5095360;28;20044;-71
2023/04/18 10:59:24;;;;;;;6.13;3.03;;;20.60;52.10;;;;;;5094883;28;20440;-71
2023/04/18 11:01:56;;;;;;;4.90;2.92;;;20.60;52.00;;;;;;5091501;28;20406;-71
2023/04/18 11:04:22;;;;;;;8.73;3.50;;;20.60;52.10;;;;;;5093509;28;20544;-71
2023/04/18 11:06:53;;;;;;;7.18;3.42;;;20.60;52.10;;;;;;5093895;28;20054;-72
2023/04/18 11:09:19;;;;;;;4.97;2.78;;;20.60;52.20;;;;;;5093807;28;20096;-71
2023/04/18 11:11:45;;;;;;;5.80;2.80;;;20.60;52.20;;;;;;5093147;28;20048;-72
2023/04/18 11:14:10;;;;;;;6.07;3.50;;;20.60;52.30;;;;;;5090198;28;20048;-68
2023/04/18 11:16:36;;;;;;;7.35;3.72;;;20.60;52.30;;;;;;5091406;28;20442;-68
2023/04/18 11:19:20;;;;;;;7.00;3.83;;;20.60;52.10;;;;;;5093879;28;20048;-68
2023/04/18 11:21:45;;;;;;;8.30;3.58;;;20.60;52.00;;;;;;5092139;28;20051;-68
2023/04/18 11:24:11;;;;;;;6.80;3.67;;;20.70;52.20;;;;;;5092416;28;20100;-68
2023/04/18 11:26:37;;;;;;;7.15;3.70;;;20.60;52.10;;;;;;5092485;28;20040;-67
2023/04/18 11:29:03;;;;;;;5.30;3.22;;;20.70;52.20;;;;;;5092662;28;20088;-67
2023/04/18 11:31:29;;;;;;;4.90;3.38;;;20.70;52.20;;;;;;5091513;28;20090;-67
2023/04/18 11:33:55;;;;;;;6.00;3.53;;;20.70;52.30;;;;;;5092128;28;20079;-67
2023/04/18 11:36:20;;;;;;;5.60;3.20;;;20.70;52.30;;;;;;5092695;28;20036;-67
2023/04/18 11:38:46;;;;;;;5.82;3.33;;;20.70;52.30;;;;;;5093711;28;20449;-66
2023/04/18 11:41:13;;;;;;;5.65;3.38;;;20.70;52.40;;;;;;5091720;28;20044;-67
2023/04/18 11:43:41;;;;;;;5.90;3.33;;;20.80;52.50;;;;;;5091323;28;20052;-66
2023/04/18 11:46:07;;;;;;;;;;;20.80;52.50;;;;;;5093399;28;20468;-67
2023/04/18 11:48:40;;;;;;;5.43;2.92;;;20.80;52.60;;;;;;5093540;28;19920;-67
2023/04/18 11:51:06;;;;;;;4.68;2.90;;;20.80;52.60;;;;;;5092366;28;20109;-67
2023/04/18 11:53:35;;;;;;;6.10;2.88;;;20.80;52.60;;;;;;5091180;28;20051;-67
2023/04/18 11:56:02;;;;;;;5.25;3.05;;;20.80;52.60;;;;;;5092767;28;20447;-65
2023/04/18 11:58:32;;;;;;;6.68;3.20;;;20.80;52.60;;;;;;5092646;28;20115;-65
2023/04/18 12:00:57;;;;;;;5.80;3.20;;;20.80;52.60;;;;;;5091789;28;20123;-67
2023/04/18 12:03:23;;;;;;;5.25;2.92;;;20.80;52.50;;;;;;5093192;28;20446;-67
2023/04/18 12:05:56;;;;;;;6.45;3.13;;;20.80;52.50;;;;;;5092620;28;20483;-68
2023/04/18 12:08:22;;;;;;;6.88;3.58;;;20.80;52.50;;;;;;5082460;28;20094;-69
2023/04/18 12:10:51;;;;;;;4.72;2.65;;;20.80;52.50;;;;;;5089888;28;20048;-68
2023/04/18 12:13:17;;;;;;;5.88;2.80;;;20.80;52.60;;;;;;5089442;28;20155;-70
2023/04/18 12:15:44;;;;;;;4.75;2.85;;;20.80;52.50;;;;;;5092605;28;20554;-71
2023/04/18 12:18:10;;;;;;;4.82;2.85;;;20.90;52.50;;;;;;5091010;28;20078;-65
2023/04/18 12:20:49;;;;;;;5.28;3.00;;;20.80;52.30;;;;;;5090844;28;20032;-68
2023/04/18 12:23:34;;;;;;;6.03;3.30;;;20.80;52.20;;;;;;5087751;28;20432;-74
2023/04/18 12:26:00;;;;;;;5.82;3.03;;;20.90;52.20;;;;;;5091712;28;20063;-71
2023/04/18 12:28:26;;;;;;;5.30;3.17;;;20.90;52.20;;;;;;5093417;28;20119;-72
2023/04/18 12:30:52;;;;;;;4.70;2.90;;;20.90;52.10;;;;;;5092804;28;20127;-72
2023/04/18 12:33:18;;;;;;;4.10;2.83;;;20.90;52.00;;;;;;5091309;28;20040;-71
2023/04/18 12:35:44;;;;;;;4.80;2.90;;;20.90;52.00;;;;;;5092826;28;20040;-71
2023/04/18 12:38:09;;;;;;;7.68;3.33;;;20.90;51.90;;;;;;5090033;28;20064;-71
2023/04/18 12:40:37;;;;;;;6.68;3.20;;;20.90;51.80;;;;;;5078843;28;20078;-72
2023/04/18 12:43:02;;;;;;;8.13;3.80;;;20.90;51.80;;;;;;5097651;28;20032;-72
2023/04/18 12:45:28;;;;;;;6.15;3.40;;;20.90;51.90;;;;;;5092706;28;20044;-71